Terminal Aerodrome Forecast
Issued by NWS Buffalo, NY

Home | Current Version | Previous Version | Text Only | Print | Product List | Glossary On
Versions: 1 2 3 4 5 6 7 8 9 10 11 12 13 14 15 16 17 18 19 20 21 22 23 24 25
797
FTUS41 KBUF 162109 AAA
TAFROC
TAF AMD
KROC 162109Z 1621/1718 29006KT P6SM VCSH BKN050
     FM162300 28006KT 5SM -SN SCT025 BKN050
     FM170500 26008KT P6SM BKN015
     FM171100 24009KT P6SM SCT025
     FM171300 24009KT P6SM SCT025
     FM171600 25010G16KT P6SM SCT020=

USA.gov is the U.S. government's official web portal to all federal, state and local government web resources and services.